createdAt,value
2022-11-17T00:04:46.515Z,21.00
2022-11-17T00:09:50.095Z,21.00
2022-11-17T00:14:54.995Z,21.00
2022-11-17T00:20:16.131Z,21.00
2022-11-17T00:25:19.632Z,21.00
2022-11-17T00:30:43.933Z,21.00
2022-11-17T00:35:53.240Z,21.00
2022-11-17T00:40:58.540Z,21.00
2022-11-17T00:46:03.440Z,21.00
2022-11-17T00:51:07.627Z,21.00
2022-11-17T00:56:11.218Z,21.00
2022-11-17T01:01:16.840Z,21.00
2022-11-17T01:06:22.181Z,21.00
2022-11-17T01:11:25.664Z,21.00
2022-11-17T01:16:33.058Z,20.90
2022-11-17T01:21:36.722Z,20.90
2022-11-17T01:26:42.038Z,20.90
2022-11-17T01:31:51.849Z,21.00
2022-11-17T01:37:18.146Z,20.90
2022-11-17T01:42:24.884Z,20.90
2022-11-17T01:47:42.531Z,20.90
2022-11-17T01:52:46.200Z,20.90
2022-11-17T01:57:57.609Z,20.90
2022-11-17T02:03:07.374Z,20.90
2022-11-17T02:08:12.747Z,20.90
2022-11-17T02:13:16.836Z,20.90
2022-11-17T02:18:22.161Z,20.90
2022-11-17T02:30:05.341Z,20.90
2022-11-17T02:35:20.133Z,20.90
2022-11-17T02:40:32.939Z,20.90
2022-11-17T02:45:45.058Z,20.90
2022-11-17T02:50:50.774Z,20.90
2022-11-17T02:55:56.122Z,20.90
2022-11-17T03:01:43.689Z,20.90
2022-11-17T03:07:05.920Z,20.90
2022-11-17T03:12:17.957Z,20.90
2022-11-17T03:17:30.758Z,20.90
2022-11-17T03:22:44.489Z,20.90
2022-11-17T03:27:52.947Z,20.90
2022-11-17T03:33:06.521Z,20.90
2022-11-17T03:38:14.680Z,20.90
2022-11-17T03:43:20.211Z,20.90
2022-11-17T03:48:32.596Z,20.90
2022-11-17T03:53:37.869Z,20.90
2022-11-17T03:58:51.602Z,20.80
2022-11-17T04:03:56.561Z,20.90
2022-11-17T04:09:00.179Z,20.80
2022-11-17T04:14:21.270Z,20.80
2022-11-17T04:19:26.170Z,20.80
2022-11-17T04:24:29.691Z,20.80
2022-11-17T04:29:34.214Z,20.90
2022-11-17T04:34:41.686Z,20.90
2022-11-17T04:39:46.631Z,20.80
2022-11-17T04:44:50.218Z,20.80
2022-11-17T04:49:55.145Z,20.80
2022-11-17T04:54:58.679Z,20.80
2022-11-17T05:00:02.252Z,20.80
2022-11-17T05:05:08.844Z,20.90
2022-11-17T05:10:13.902Z,20.90
2022-11-17T05:15:37.666Z,20.90
2022-11-17T05:20:42.587Z,20.80
2022-11-17T05:25:46.181Z,20.80
2022-11-17T05:30:49.713Z,20.90
2022-11-17T05:35:54.598Z,20.80
2022-11-17T05:40:58.230Z,20.90
2022-11-17T05:46:02.197Z,20.80
2022-11-17T05:51:08.009Z,20.80
2022-11-17T05:56:34.989Z,20.80
2022-11-17T06:01:43.618Z,20.80
2022-11-17T06:06:49.560Z,20.80
2022-11-17T06:11:53.222Z,20.80
2022-11-17T06:17:04.174Z,20.80
2022-11-17T06:22:13.016Z,20.80
2022-11-17T06:27:18.451Z,20.80
2022-11-17T06:32:22.052Z,20.80
2022-11-17T06:37:27.345Z,20.80
2022-11-17T06:42:48.652Z,20.80
2022-11-17T06:47:54.336Z,20.90
2022-11-17T06:53:00.925Z,20.80
2022-11-17T06:58:07.780Z,20.90
2022-11-17T07:03:12.651Z,20.90
2022-11-17T07:08:19.100Z,20.90
2022-11-17T07:13:24.028Z,20.90
2022-11-17T07:18:28.674Z,20.90
2022-11-17T07:23:35.462Z,21.00
2022-11-17T07:28:39.270Z,21.00
2022-11-17T07:33:43.186Z,21.10
2022-11-17T07:38:48.310Z,21.10
2022-11-17T07:43:51.909Z,21.10
2022-11-17T07:48:55.961Z,21.20
2022-11-17T07:54:00.950Z,21.20
2022-11-17T07:59:04.748Z,21.20
2022-11-17T08:04:08.520Z,21.20
2022-11-17T08:09:14.375Z,21.20
2022-11-17T08:14:18.022Z,21.20
2022-11-17T08:19:21.572Z,21.20
2022-11-17T08:24:26.706Z,21.30
2022-11-17T08:29:30.482Z,21.20
2022-11-17T08:34:34.267Z,21.10
2022-11-17T08:39:39.351Z,20.80
2022-11-17T08:44:43.112Z,20.50
2022-11-17T08:49:46.980Z,20.50
2022-11-17T08:54:52.547Z,20.50
2022-11-17T08:59:56.824Z,20.50
2022-11-17T09:05:00.783Z,20.60
2022-11-17T09:10:11.074Z,20.60
2022-11-17T09:15:15.049Z,20.60
2022-11-17T09:20:20.657Z,20.60
2022-11-17T09:25:26.114Z,20.60
2022-11-17T09:30:29.935Z,20.60
2022-11-17T09:35:33.574Z,20.60
2022-11-17T09:40:42.023Z,20.50
2022-11-17T09:45:49.444Z,20.50
2022-11-17T09:50:59.186Z,20.50
2022-11-17T09:56:07.422Z,20.50
2022-11-17T10:01:15.114Z,20.50
2022-11-17T10:06:23.422Z,20.50
2022-11-17T10:11:33.145Z,20.50
2022-11-17T10:16:38.350Z,20.50
2022-11-17T10:21:42.397Z,20.50
2022-11-17T10:26:49.922Z,20.50
2022-11-17T10:31:54.224Z,20.50
2022-11-17T10:36:58.522Z,20.50
2022-11-17T10:42:22.380Z,20.50
2022-11-17T10:47:31.869Z,20.50
2022-11-17T10:52:35.504Z,21.00
2022-11-17T10:57:46.730Z,21.30
2022-11-17T11:02:50.554Z,21.20
2022-11-17T11:08:16.237Z,21.00
2022-11-17T11:13:30.739Z,20.90
2022-11-17T11:18:34.366Z,20.90
2022-11-17T11:23:52.390Z,20.80
2022-11-17T11:29:08.808Z,20.60
2022-11-17T11:34:42.164Z,20.40
2022-11-17T11:39:57.516Z,20.30
2022-11-17T11:45:30.823Z,20.30
2022-11-17T11:50:41.960Z,20.20
2022-11-17T11:55:49.468Z,20.10
2022-11-17T12:01:01.342Z,20.10
2022-11-17T12:06:33.377Z,20.10
2022-11-17T12:12:00.101Z,20.30
2022-11-17T12:17:17.354Z,20.30
2022-11-17T12:22:49.965Z,20.30
2022-11-17T12:27:57.649Z,20.30
2022-11-17T12:33:04.983Z,20.30
2022-11-17T12:38:41.896Z,20.30
2022-11-17T12:43:45.577Z,20.30
2022-11-17T12:49:04.586Z,20.30
2022-11-17T12:54:22.569Z,20.40
2022-11-17T13:00:10.802Z,20.30
2022-11-17T13:05:21.523Z,20.30
2022-11-17T13:10:29.550Z,20.30
2022-11-17T13:15:33.658Z,20.30
2022-11-17T13:20:40.847Z,20.30
2022-11-17T13:25:44.501Z,20.30
2022-11-17T13:30:48.664Z,20.30
2022-11-17T13:36:17.012Z,20.40
2022-11-17T13:41:24.825Z,20.40
2022-11-17T13:46:29.365Z,20.40
2022-11-17T13:51:39.224Z,20.40
2022-11-17T13:56:52.754Z,20.40
2022-11-17T14:02:29.551Z,20.40
2022-11-17T14:07:37.560Z,20.40
2022-11-17T14:12:41.445Z,20.40
2022-11-17T14:17:51.940Z,20.40
2022-11-17T14:23:06.099Z,20.40
2022-11-17T14:28:14.735Z,20.40
2022-11-17T14:33:18.548Z,20.50
2022-11-17T14:38:23.997Z,20.50
2022-11-17T14:43:28.778Z,20.50
2022-11-17T14:48:32.551Z,20.50
2022-11-17T14:53:41.947Z,20.50
2022-11-17T14:58:46.777Z,20.50
2022-11-17T15:03:54.121Z,20.50
2022-11-17T15:09:02.564Z,20.40
2022-11-17T15:14:07.406Z,20.40
2022-11-17T15:19:12.387Z,20.40
2022-11-17T15:24:18.167Z,20.40
2022-11-17T15:29:22.074Z,20.40
2022-11-17T15:34:25.833Z,20.40
2022-11-17T15:39:30.927Z,20.30
2022-11-17T15:44:34.651Z,20.30
2022-11-17T15:49:38.331Z,20.30
2022-11-17T15:54:43.250Z,20.30
2022-11-17T15:59:46.968Z,20.30
2022-11-17T16:04:50.604Z,20.40
2022-11-17T16:09:55.780Z,20.30
2022-11-17T16:14:59.390Z,20.40
2022-11-17T16:20:03.059Z,20.40
2022-11-17T16:25:10.509Z,20.40
2022-11-17T16:30:14.986Z,20.30
2022-11-17T16:35:19.173Z,20.30
2022-11-17T16:40:24.293Z,20.20
2022-11-17T16:45:28.071Z,20.20
2022-11-17T16:50:31.925Z,20.30
2022-11-17T16:55:38.019Z,20.20
2022-11-17T17:00:41.720Z,20.20
2022-11-17T17:05:45.392Z,20.20
2022-11-17T17:10:50.387Z,20.20
2022-11-17T17:15:53.993Z,20.20
2022-11-17T17:20:57.585Z,20.20
2022-11-17T17:26:09.170Z,20.20
2022-11-17T17:31:20.790Z,20.20
2022-11-17T17:36:26.900Z,20.20
2022-11-17T17:41:34.390Z,20.20
2022-11-17T17:46:40.252Z,20.20
2022-11-17T17:51:47.208Z,20.20
2022-11-17T17:56:52.833Z,20.20
2022-11-17T18:01:56.501Z,20.20
2022-11-17T18:07:01.515Z,20.20
2022-11-17T18:12:07.456Z,20.20
2022-11-17T18:17:12.382Z,20.20
2022-11-17T18:22:15.967Z,20.20
2022-11-17T18:27:20.921Z,20.20
2022-11-17T18:32:24.637Z,20.20
2022-11-17T18:37:28.377Z,20.20
2022-11-17T18:42:34.154Z,20.20
2022-11-17T18:47:37.795Z,20.10
2022-11-17T18:52:42.065Z,20.10
2022-11-17T18:57:47.165Z,20.10
2022-11-17T19:02:50.982Z,20.10
2022-11-17T19:07:57.264Z,20.10
2022-11-17T19:13:02.475Z,20.20
2022-11-17T19:18:06.537Z,20.50
2022-11-17T19:23:10.499Z,20.90
2022-11-17T19:28:15.788Z,21.20
2022-11-17T19:33:20.004Z,21.40
2022-11-17T19:38:23.718Z,21.50
2022-11-17T19:43:30.919Z,21.60
2022-11-17T19:48:35.350Z,21.60
2022-11-17T19:53:39.438Z,21.60
2022-11-17T19:58:45.170Z,21.60
2022-11-17T20:03:49.179Z,21.60
2022-11-17T20:08:52.753Z,21.50
2022-11-17T20:13:58.556Z,21.50
2022-11-17T20:19:03.242Z,21.50
2022-11-17T20:24:08.254Z,21.40
2022-11-17T20:29:13.347Z,21.40
2022-11-17T20:34:17.344Z,21.40
2022-11-17T20:39:21.076Z,21.30
2022-11-17T20:44:26.250Z,21.30
2022-11-17T20:49:30.949Z,21.30
2022-11-17T20:54:35.534Z,21.30
2022-11-17T20:59:40.595Z,21.20
2022-11-17T21:04:44.195Z,21.20
2022-11-17T21:09:47.884Z,21.20
2022-11-17T21:14:52.955Z,21.10
2022-11-17T21:19:56.654Z,21.20
2022-11-17T21:25:00.242Z,21.10
2022-11-17T21:30:07.162Z,21.10
2022-11-17T21:35:10.824Z,21.10
2022-11-17T21:40:14.675Z,21.10
2022-11-17T21:45:20.135Z,21.10
2022-11-17T21:50:23.731Z,21.10
2022-11-17T21:55:27.326Z,21.10
2022-11-17T22:00:32.294Z,21.20
2022-11-17T22:05:35.931Z,21.40
2022-11-17T22:10:40.762Z,21.80
2022-11-17T22:15:45.908Z,22.20
2022-11-17T22:20:52.567Z,22.40
2022-11-17T22:25:57.800Z,22.50
2022-11-17T22:31:06.885Z,22.50
2022-11-17T22:36:12.247Z,22.50
2022-11-17T22:41:16.304Z,22.50
2022-11-17T22:46:23.879Z,22.40
2022-11-17T22:51:44.990Z,22.40
2022-11-17T22:56:48.597Z,22.40
2022-11-17T23:01:53.707Z,22.30
2022-11-17T23:06:57.287Z,22.30
2022-11-17T23:12:01.004Z,22.20
2022-11-17T23:17:06.048Z,22.20
2022-11-17T23:22:11.024Z,22.20
2022-11-17T23:27:14.741Z,22.20
2022-11-17T23:32:19.723Z,22.20
2022-11-17T23:37:23.341Z,22.20
2022-11-17T23:42:32.088Z,22.20
2022-11-17T23:47:37.523Z,22.10
2022-11-17T23:52:41.380Z,22.10
2022-11-17T23:57:44.943Z,22.10
